sensor_id;sensor_type;location;lat;lon;timestamp;noise_LAeq;noise_LA_min;noise_LA_max;noise_LA01;noise_LA95
67304;Laerm;57660;51.436;5.978;2023-03-03T00:00:30;37.45;29.20;46.02;;
67304;Laerm;57660;51.436;5.978;2023-03-03T00:00:41;30.44;29.20;31.47;;
67304;Laerm;57660;51.436;5.978;2023-03-03T00:00:51;30.35;29.16;31.61;;
67304;Laerm;57660;51.436;5.978;2023-03-03T00:01:02;34.82;29.10;50.12;;
67304;Laerm;57660;51.436;5.978;2023-03-03T00:01:16;31.08;29.67;34.68;;
67304;Laerm;57660;51.436;5.978;2023-03-03T00:01:35;31.18;29.32;39.32;;
67304;Laerm;57660;51.436;5.978;2023-03-03T00:01:45;30.96;29.33;35.24;;
67304;Laerm;57660;51.436;5.978;2023-03-03T00:01:58;30.69;29.54;32.92;;
67304;Laerm;57660;51.436;5.978;2023-03-03T00:02:11;30.36;29.06;31.29;;
67304;Laerm;57660;51.436;5.978;2023-03-03T00:02:21;30.55;29.34;32.61;;
67304;Laerm;57660;51.436;5.978;2023-03-03T00:02:31;30.65;29.19;37.33;;
67304;Laerm;57660;51.436;5.978;2023-03-03T00:02:46;30.35;29.34;31.48;;
67304;Laerm;57660;51.436;5.978;2023-03-03T00:03:03;30.51;29.47;32.52;;
67304;Laerm;57660;51.436;5.978;2023-03-03T00:03:24;30.41;28.92;33.98;;
67304;Laerm;57660;51.436;5.978;2023-03-03T00:03:42;31.74;29.26;49.22;;
67304;Laerm;57660;51.436;5.978;2023-03-03T00:03:55;31.49;29.28;40.10;;
67304;Laerm;57660;51.436;5.978;2023-03-03T00:04:11;30.31;29.24;31.52;;
67304;Laerm;57660;51.436;5.978;2023-03-03T00:04:22;30.17;29.12;32.22;;
67304;Laerm;57660;51.436;5.978;2023-03-03T00:04:41;30.38;29.11;31.32;;
67304;Laerm;57660;51.436;5.978;2023-03-03T00:04:52;30.40;29.14;31.61;;
67304;Laerm;57660;51.436;5.978;2023-03-03T00:05:02;30.40;28.99;31.74;;
67304;Laerm;57660;51.436;5.978;2023-03-03T00:05:13;30.51;29.28;32.62;;
67304;Laerm;57660;51.436;5.978;2023-03-03T00:05:31;30.63;29.50;32.74;;
67304;Laerm;57660;51.436;5.978;2023-03-03T00:05:42;45.86;29.00;52.51;;
67304;Laerm;57660;51.436;5.978;2023-03-03T00:05:52;43.37;36.72;51.40;;
67304;Laerm;57660;51.436;5.978;2023-03-03T00:06:08;42.64;37.35;46.35;;
67304;Laerm;57660;51.436;5.978;2023-03-03T00:06:21;70.66;42.41;80.36;;
67304;Laerm;57660;51.436;5.978;2023-03-03T00:06:35;74.62;61.24;82.53;;
67304;Laerm;57660;51.436;5.978;2023-03-03T00:07:05;47.73;33.03;62.10;;
67304;Laerm;57660;51.436;5.978;2023-03-03T00:07:21;32.63;30.82;35.29;;
67304;Laerm;57660;51.436;5.978;2023-03-03T00:07:32;31.60;30.20;33.20;;
67304;Laerm;57660;51.436;5.978;2023-03-03T00:07:48;31.05;29.90;35.13;;
67304;Laerm;57660;51.436;5.978;2023-03-03T00:07:59;30.84;29.44;42.01;;
67304;Laerm;57660;51.436;5.978;2023-03-03T00:08:09;30.92;29.54;38.92;;
67304;Laerm;57660;51.436;5.978;2023-03-03T00:08:29;30.76;29.39;37.08;;
67304;Laerm;57660;51.436;5.978;2023-03-03T00:08:39;30.93;29.74;32.20;;
67304;Laerm;57660;51.436;5.978;2023-03-03T00:08:52;31.09;29.63;33.61;;
67304;Laerm;57660;51.436;5.978;2023-03-03T00:09:24;31.09;29.59;35.28;;
67304;Laerm;57660;51.436;5.978;2023-03-03T00:09:36;30.63;29.39;34.21;;
67304;Laerm;57660;51.436;5.978;2023-03-03T00:09:57;30.42;29.21;31.59;;
67304;Laerm;57660;51.436;5.978;2023-03-03T00:10:16;30.29;29.14;33.15;;
67304;Laerm;57660;51.436;5.978;2023-03-03T00:10:27;30.52;29.02;35.58;;
67304;Laerm;57660;51.436;5.978;2023-03-03T00:10:45;31.60;29.51;39.95;;
67304;Laerm;57660;51.436;5.978;2023-03-03T00:10:58;43.03;29.49;60.19;;
67304;Laerm;57660;51.436;5.978;2023-03-03T00:11:09;31.29;29.43;40.38;;
67304;Laerm;57660;51.436;5.978;2023-03-03T00:11:58;30.60;29.13;37.22;;
67304;Laerm;57660;51.436;5.978;2023-03-03T00:12:29;30.36;29.20;31.98;;
67304;Laerm;57660;51.436;5.978;2023-03-03T00:12:45;30.39;29.35;33.30;;
67304;Laerm;57660;51.436;5.978;2023-03-03T00:12:56;30.34;29.06;31.46;;
67304;Laerm;57660;51.436;5.978;2023-03-03T00:13:16;30.56;29.61;32.01;;
67304;Laerm;57660;51.436;5.978;2023-03-03T00:13:36;30.58;29.20;33.18;;
67304;Laerm;57660;51.436;5.978;2023-03-03T00:14:00;30.50;29.54;31.90;;
67304;Laerm;57660;51.436;5.978;2023-03-03T00:14:27;30.78;29.41;32.46;;
67304;Laerm;57660;51.436;5.978;2023-03-03T00:14:43;30.80;29.34;40.09;;
67304;Laerm;57660;51.436;5.978;2023-03-03T00:14:54;30.32;29.32;31.23;;
67304;Laerm;57660;51.436;5.978;2023-03-03T00:15:23;30.17;29.10;31.43;;
67304;Laerm;57660;51.436;5.978;2023-03-03T00:15:39;30.22;29.21;31.52;;
67304;Laerm;57660;51.436;5.978;2023-03-03T00:15:50;30.19;28.99;31.31;;
67304;Laerm;57660;51.436;5.978;2023-03-03T00:16:21;30.20;29.27;31.32;;
67304;Laerm;57660;51.436;5.978;2023-03-03T00:16:36;30.36;28.94;32.63;;
67304;Laerm;57660;51.436;5.978;2023-03-03T00:16:47;31.46;29.01;44.10;;
67304;Laerm;57660;51.436;5.978;2023-03-03T00:17:10;30.25;29.43;31.60;;
67304;Laerm;57660;51.436;5.978;2023-03-03T00:17:41;30.40;29.06;38.34;;
67304;Laerm;57660;51.436;5.978;2023-03-03T00:17:57;30.33;29.21;31.78;;
67304;Laerm;57660;51.436;5.978;2023-03-03T00:18:45;30.20;29.10;31.45;;
67304;Laerm;57660;51.436;5.978;2023-03-03T00:18:59;30.21;29.22;31.42;;
67304;Laerm;57660;51.436;5.978;2023-03-03T00:19:25;30.22;29.19;31.08;;
67304;Laerm;57660;51.436;5.978;2023-03-03T00:19:37;41.94;29.11;51.04;;
67304;Laerm;57660;51.436;5.978;2023-03-03T00:19:55;47.43;39.24;53.07;;
67304;Laerm;57660;51.436;5.978;2023-03-03T00:20:38;67.78;39.36;77.81;;
67304;Laerm;57660;51.436;5.978;2023-03-03T00:20:52;67.94;44.64;73.26;;
67304;Laerm;57660;51.436;5.978;2023-03-03T00:21:03;40.75;33.76;47.53;;
67304;Laerm;57660;51.436;5.978;2023-03-03T00:21:50;31.89;29.97;37.12;;
67304;Laerm;57660;51.436;5.978;2023-03-03T00:22:01;30.82;29.44;32.25;;
67304;Laerm;57660;51.436;5.978;2023-03-03T00:22:30;30.36;29.27;31.54;;
67304;Laerm;57660;51.436;5.978;2023-03-03T00:22:51;30.78;29.35;33.48;;
67304;Laerm;57660;51.436;5.978;2023-03-03T00:23:41;30.37;29.30;31.33;;
67304;Laerm;57660;51.436;5.978;2023-03-03T00:24:01;30.47;29.33;34.76;;
67304;Laerm;57660;51.436;5.978;2023-03-03T00:24:22;30.37;29.26;31.99;;
67304;Laerm;57660;51.436;5.978;2023-03-03T00:24:35;30.20;28.81;31.26;;
67304;Laerm;57660;51.436;5.978;2023-03-03T00:24:51;30.30;29.03;31.32;;
67304;Laerm;57660;51.436;5.978;2023-03-03T00:25:32;30.27;28.96;31.67;;
67304;Laerm;57660;51.436;5.978;2023-03-03T00:25:50;30.35;29.08;31.57;;
67304;Laerm;57660;51.436;5.978;2023-03-03T00:26:01;30.62;29.34;35.29;;
67304;Laerm;57660;51.436;5.978;2023-03-03T00:26:20;31.03;29.39;36.60;;
67304;Laerm;57660;51.436;5.978;2023-03-03T00:26:33;30.32;29.04;35.98;;
67304;Laerm;57660;51.436;5.978;2023-03-03T00:26:47;30.16;29.07;31.30;;
67304;Laerm;57660;51.436;5.978;2023-03-03T00:28:24;30.80;29.05;34.45;;
67304;Laerm;57660;51.436;5.978;2023-03-03T00:28:47;31.85;29.62;35.41;;
67304;Laerm;57660;51.436;5.978;2023-03-03T00:28:58;31.91;29.80;35.35;;
67304;Laerm;57660;51.436;5.978;2023-03-03T00:30:41;30.43;29.27;32.34;;
67304;Laerm;57660;51.436;5.978;2023-03-03T00:30:54;30.27;29.27;31.53;;
67304;Laerm;57660;51.436;5.978;2023-03-03T00:31:05;30.49;29.33;31.47;;
67304;Laerm;57660;51.436;5.978;2023-03-03T00:31:33;30.21;29.15;31.35;;
67304;Laerm;57660;51.436;5.978;2023-03-03T00:31:44;30.21;28.99;31.16;;
67304;Laerm;57660;51.436;5.978;2023-03-03T00:31:54;30.22;29.20;31.24;;
67304;Laerm;57660;51.436;5.978;2023-03-03T00:32:41;30.19;29.00;31.82;;
67304;Laerm;57660;51.436;5.978;2023-03-03T00:32:53;30.09;28.94;31.37;;
67304;Laerm;57660;51.436;5.978;2023-03-03T00:33:21;30.10;28.77;31.25;;
67304;Laerm;57660;51.436;5.978;2023-03-03T00:33:50;30.31;29.11;35.64;;
67304;Laerm;57660;51.436;5.978;2023-03-03T00:34:35;30.41;29.20;35.07;;
67304;Laerm;57660;51.436;5.978;2023-03-03T00:34:46;30.35;29.11;33.77;;
67304;Laerm;57660;51.436;5.978;2023-03-03T00:35:00;30.24;29.08;33.06;;
67304;Laerm;57660;51.436;5.978;2023-03-03T00:35:30;30.40;29.23;34.15;;
67304;Laerm;57660;51.436;5.978;2023-03-03T00:35:46;31.11;29.15;47.14;;
67304;Laerm;57660;51.436;5.978;2023-03-03T00:36:28;30.34;29.17;33.80;;
67304;Laerm;57660;51.436;5.978;2023-03-03T00:36:56;30.39;29.20;32.07;;
67304;Laerm;57660;51.436;5.978;2023-03-03T00:37:25;33.97;30.70;39.36;;
67304;Laerm;57660;51.436;5.978;2023-03-03T00:37:49;35.42;29.81;44.35;;
67304;Laerm;57660;51.436;5.978;2023-03-03T00:38:10;30.52;29.28;33.93;;
67304;Laerm;57660;51.436;5.978;2023-03-03T00:38:21;30.30;28.92;33.07;;
67304;Laerm;57660;51.436;5.978;2023-03-03T00:38:31;30.42;29.45;31.46;;
67304;Laerm;57660;51.436;5.978;2023-03-03T00:38:47;30.41;29.41;32.99;;
67304;Laerm;57660;51.436;5.978;2023-03-03T00:39:15;30.28;29.27;31.85;;
67304;Laerm;57660;51.436;5.978;2023-03-03T00:39:47;31.84;29.20;47.29;;
67304;Laerm;57660;51.436;5.978;2023-03-03T00:39:59;33.19;29.77;46.15;;
67304;Laerm;57660;51.436;5.978;2023-03-03T00:40:21;36.47;30.58;51.93;;
67304;Laerm;57660;51.436;5.978;2023-03-03T00:40:36;33.43;29.88;38.73;;
67304;Laerm;57660;51.436;5.978;2023-03-03T00:40:50;40.14;33.50;46.22;;
67304;Laerm;57660;51.436;5.978;2023-03-03T00:41:01;32.08;29.80;36.48;;
67304;Laerm;57660;51.436;5.978;2023-03-03T00:41:26;30.42;29.14;33.13;;
67304;Laerm;57660;51.436;5.978;2023-03-03T00:41:40;30.41;28.83;40.45;;
67304;Laerm;57660;51.436;5.978;2023-03-03T00:41:50;30.34;29.42;31.36;;
67304;Laerm;57660;51.436;5.978;2023-03-03T00:42:11;30.23;29.01;31.09;;
67304;Laerm;57660;51.436;5.978;2023-03-03T00:42:31;29.98;29.01;31.16;;
67304;Laerm;57660;51.436;5.978;2023-03-03T00:42:55;30.22;29.16;31.16;;
67304;Laerm;57660;51.436;5.978;2023-03-03T00:43:17;30.25;29.25;31.68;;
67304;Laerm;57660;51.436;5.978;2023-03-03T00:43:34;30.14;29.05;31.17;;
67304;Laerm;57660;51.436;5.978;2023-03-03T00:43:51;30.43;29.01;33.55;;
67304;Laerm;57660;51.436;5.978;2023-03-03T00:44:19;30.34;29.16;32.60;;
67304;Laerm;57660;51.436;5.978;2023-03-03T00:44:41;30.36;29.14;33.92;;
67304;Laerm;57660;51.436;5.978;2023-03-03T00:45:26;30.31;28.88;31.70;;
67304;Laerm;57660;51.436;5.978;2023-03-03T00:45:50;30.32;29.28;34.98;;
67304;Laerm;57660;51.436;5.978;2023-03-03T00:46:07;30.52;29.00;33.31;;
67304;Laerm;57660;51.436;5.978;2023-03-03T00:46:21;30.71;29.36;39.14;;
67304;Laerm;57660;51.436;5.978;2023-03-03T00:46:38;30.37;29.34;32.86;;
67304;Laerm;57660;51.436;5.978;2023-03-03T00:46:48;30.29;29.19;33.62;;
67304;Laerm;57660;51.436;5.978;2023-03-03T00:47:13;30.30;29.10;32.35;;
67304;Laerm;57660;51.436;5.978;2023-03-03T00:47:37;30.56;29.16;34.98;;
67304;Laerm;57660;51.436;5.978;2023-03-03T00:47:54;30.70;29.16;37.45;;
67304;Laerm;57660;51.436;5.978;2023-03-03T00:48:10;31.18;29.21;45.42;;
67304;Laerm;57660;51.436;5.978;2023-03-03T00:48:45;30.63;29.46;36.11;;
67304;Laerm;57660;51.436;5.978;2023-03-03T00:49:28;30.82;29.14;41.55;;
67304;Laerm;57660;51.436;5.978;2023-03-03T00:49:38;30.44;28.84;34.35;;
67304;Laerm;57660;51.436;5.978;2023-03-03T00:49:48;30.49;29.51;31.53;;
67304;Laerm;57660;51.436;5.978;2023-03-03T00:50:15;30.24;28.92;31.31;;
67304;Laerm;57660;51.436;5.978;2023-03-03T00:50:31;30.35;29.25;31.98;;
67304;Laerm;57660;51.436;5.978;2023-03-03T00:50:42;30.56;29.30;42.99;;
67304;Laerm;57660;51.436;5.978;2023-03-03T00:50:57;30.52;29.35;31.71;;
67304;Laerm;57660;51.436;5.978;2023-03-03T00:51:38;30.86;29.43;46.86;;
67304;Laerm;57660;51.436;5.978;2023-03-03T00:51:58;31.36;29.28;38.82;;
67304;Laerm;57660;51.436;5.978;2023-03-03T00:52:55;30.40;29.14;32.26;;
67304;Laerm;57660;51.436;5.978;2023-03-03T00:53:16;30.63;29.39;42.13;;
67304;Laerm;57660;51.436;5.978;2023-03-03T00:53:27;30.81;29.19;40.94;;
67304;Laerm;57660;51.436;5.978;2023-03-03T00:53:48;31.07;29.03;39.90;;
67304;Laerm;57660;51.436;5.978;2023-03-03T00:53:58;30.32;29.14;34.28;;
67304;Laerm;57660;51.436;5.978;2023-03-03T00:54:09;30.43;29.18;31.57;;
67304;Laerm;57660;51.436;5.978;2023-03-03T00:54:20;30.25;29.34;31.20;;
67304;Laerm;57660;51.436;5.978;2023-03-03T00:54:31;30.33;29.31;31.32;;
67304;Laerm;57660;51.436;5.978;2023-03-03T00:54:42;30.26;29.23;31.31;;
67304;Laerm;57660;51.436;5.978;2023-03-03T00:54:53;30.13;29.20;31.01;;
67304;Laerm;57660;51.436;5.978;2023-03-03T00:55:12;30.11;29.09;30.96;;
67304;Laerm;57660;51.436;5.978;2023-03-03T00:55:22;30.15;28.86;31.37;;
67304;Laerm;57660;51.436;5.978;2023-03-03T00:55:39;30.30;29.30;32.50;;
67304;Laerm;57660;51.436;5.978;2023-03-03T00:55:50;30.19;29.23;31.40;;
67304;Laerm;57660;51.436;5.978;2023-03-03T00:56:09;30.28;29.26;31.48;;
67304;Laerm;57660;51.436;5.978;2023-03-03T00:56:20;30.29;29.00;31.50;;
67304;Laerm;57660;51.436;5.978;2023-03-03T00:56:30;30.46;29.02;37.30;;
67304;Laerm;57660;51.436;5.978;2023-03-03T00:56:54;30.39;29.45;31.43;;
67304;Laerm;57660;51.436;5.978;2023-03-03T00:57:04;30.46;29.38;32.72;;
67304;Laerm;57660;51.436;5.978;2023-03-03T00:57:15;30.48;29.49;31.58;;
67304;Laerm;57660;51.436;5.978;2023-03-03T00:57:31;30.93;29.42;33.41;;
67304;Laerm;57660;51.436;5.978;2023-03-03T00:57:41;30.27;28.78;32.69;;
67304;Laerm;57660;51.436;5.978;2023-03-03T00:57:54;30.13;29.15;31.04;;
67304;Laerm;57660;51.436;5.978;2023-03-03T00:58:05;30.18;29.28;31.37;;
67304;Laerm;57660;51.436;5.978;2023-03-03T00:58:16;30.36;29.37;33.75;;
67304;Laerm;57660;51.436;5.978;2023-03-03T00:58:27;30.26;29.13;32.15;;
67304;Laerm;57660;51.436;5.978;2023-03-03T00:58:40;30.35;29.25;31.41;;
67304;Laerm;57660;51.436;5.978;2023-03-03T00:58:50;30.21;29.21;31.31;;
67304;Laerm;57660;51.436;5.978;2023-03-03T00:59:13;30.25;29.16;31.13;;
67304;Laerm;57660;51.436;5.978;2023-03-03T00:59:32;30.28;29.09;34.90;;
67304;Laerm;57660;51.436;5.978;2023-03-03T00:59:43;30.52;29.12;34.07;;
67304;Laerm;57660;51.436;5.978;2023-03-03T00:59:56;30.31;29.12;33.27;;
67304;Laerm;57660;51.436;5.978;2023-03-03T01:00:07;30.85;29.48;36.90;;
67304;Laerm;57660;51.436;5.978;2023-03-03T01:00:24;30.30;29.16;31.44;;
67304;Laerm;57660;51.436;5.978;2023-03-03T01:00:35;30.28;29.09;33.00;;
67304;Laerm;57660;51.436;5.978;2023-03-03T01:00:51;30.25;29.00;32.11;;
67304;Laerm;57660;51.436;5.978;2023-03-03T01:01:02;30.18;29.09;31.35;;
67304;Laerm;57660;51.436;5.978;2023-03-03T01:01:21;30.27;29.28;31.26;;
67304;Laerm;57660;51.436;5.978;2023-03-03T01:01:34;30.35;29.22;31.49;;
67304;Laerm;57660;51.436;5.978;2023-03-03T01:01:50;30.30;29.04;31.44;;
67304;Laerm;57660;51.436;5.978;2023-03-03T01:02:01;30.21;28.92;31.21;;
67304;Laerm;57660;51.436;5.978;2023-03-03T01:02:20;30.46;29.27;34.55;;
67304;Laerm;57660;51.436;5.978;2023-03-03T01:02:31;30.27;29.21;32.26;;
67304;Laerm;57660;51.436;5.978;2023-03-03T01:02:50;30.18;29.12;31.21;;
67304;Laerm;57660;51.436;5.978;2023-03-03T01:03:05;30.14;28.89;33.29;;
67304;Laerm;57660;51.436;5.978;2023-03-03T01:03:24;30.05;29.11;31.09;;
67304;Laerm;57660;51.436;5.978;2023-03-03T01:03:34;30.14;29.13;31.08;;
67304;Laerm;57660;51.436;5.978;2023-03-03T01:03:53;30.24;29.25;31.74;;
67304;Laerm;57660;51.436;5.978;2023-03-03T01:04:04;30.22;29.18;33.79;;
67304;Laerm;57660;51.436;5.978;2023-03-03T01:04:14;30.34;29.11;31.92;;
67304;Laerm;57660;51.436;5.978;2023-03-03T01:04:27;30.30;29.19;31.26;;
67304;Laerm;57660;51.436;5.978;2023-03-03T01:04:38;30.27;29.31;31.99;;
67304;Laerm;57660;51.436;5.978;2023-03-03T01:05:07;30.26;29.08;31.33;;
67304;Laerm;57660;51.436;5.978;2023-03-03T01:05:19;30.26;29.16;31.06;;
67304;Laerm;57660;51.436;5.978;2023-03-03T01:05:42;30.46;29.34;37.15;;
67304;Laerm;57660;51.436;5.978;2023-03-03T01:05:52;30.23;29.11;31.33;;
67304;Laerm;57660;51.436;5.978;2023-03-03T01:06:06;30.43;29.30;32.66;;
67304;Laerm;57660;51.436;5.978;2023-03-03T01:06:16;30.19;29.08;31.35;;
67304;Laerm;57660;51.436;5.978;2023-03-03T01:06:27;30.20;29.20;31.28;;
67304;Laerm;57660;51.436;5.978;2023-03-03T01:06:37;30.38;29.51;33.05;;
67304;Laerm;57660;51.436;5.978;2023-03-03T01:06:47;30.20;29.17;31.17;;
67304;Laerm;57660;51.436;5.978;2023-03-03T01:06:58;30.21;29.25;31.18;;
67304;Laerm;57660;51.436;5.978;2023-03-03T01:07:09;30.27;29.45;31.19;;
67304;Laerm;57660;51.436;5.978;2023-03-03T01:07:41;30.38;29.36;31.46;;
67304;Laerm;57660;51.436;5.978;2023-03-03T01:07:54;30.40;29.30;31.28;;
67304;Laerm;57660;51.436;5.978;2023-03-03T01:08:10;30.66;29.61;31.74;;
67304;Laerm;57660;51.436;5.978;2023-03-03T01:08:21;36.95;29.85;46.67;;
67304;Laerm;57660;51.436;5.978;2023-03-03T01:08:37;32.17;29.39;38.33;;
67304;Laerm;57660;51.436;5.978;2023-03-03T01:08:47;30.93;29.43;36.18;;
67304;Laerm;57660;51.436;5.978;2023-03-03T01:09:09;30.64;29.38;31.89;;
67304;Laerm;57660;51.436;5.978;2023-03-03T01:09:20;30.31;28.95;35.25;;
67304;Laerm;57660;51.436;5.978;2023-03-03T01:09:33;30.16;29.24;31.18;;
67304;Laerm;57660;51.436;5.978;2023-03-03T01:10:06;30.23;29.09;31.15;;
67304;Laerm;57660;51.436;5.978;2023-03-03T01:10:17;30.33;28.87;35.01;;
67304;Laerm;57660;51.436;5.978;2023-03-03T01:10:36;30.22;29.20;33.39;;
67304;Laerm;57660;51.436;5.978;2023-03-03T01:10:57;30.09;29.03;31.11;;
67304;Laerm;57660;51.436;5.978;2023-03-03T01:11:13;30.43;29.06;36.18;;
67304;Laerm;57660;51.436;5.978;2023-03-03T01:11:32;30.16;29.12;31.19;;
67304;Laerm;57660;51.436;5.978;2023-03-03T01:11:51;30.22;28.97;31.26;;
67304;Laerm;57660;51.436;5.978;2023-03-03T01:12:05;30.10;29.06;31.61;;
67304;Laerm;57660;51.436;5.978;2023-03-03T01:12:27;30.18;29.25;31.51;;
67304;Laerm;57660;51.436;5.978;2023-03-03T01:12:37;30.11;29.19;31.93;;
67304;Laerm;57660;51.436;5.978;2023-03-03T01:12:50;30.23;29.10;31.44;;
67304;Laerm;57660;51.436;5.978;2023-03-03T01:13:04;30.19;29.21;31.28;;
67304;Laerm;57660;51.436;5.978;2023-03-03T01:13:15;30.09;29.09;30.99;;
67304;Laerm;57660;51.436;5.978;2023-03-03T01:13:26;30.16;29.21;32.96;;
67304;Laerm;57660;51.436;5.978;2023-03-03T01:13:43;46.34;29.20;51.24;;
67304;Laerm;57660;51.436;5.978;2023-03-03T01:13:55;44.25;37.15;52.46;;
67304;Laerm;57660;51.436;5.978;2023-03-03T01:14:08;43.01;36.95;46.20;;
67304;Laerm;57660;51.436;5.978;2023-03-03T01:14:21;70.84;40.93;78.12;;
67304;Laerm;57660;51.436;5.978;2023-03-03T01:14:31;72.75;70.02;76.60;;
67304;Laerm;57660;51.436;5.978;2023-03-03T01:14:44;65.55;41.49;73.81;;
67304;Laerm;57660;51.436;5.978;2023-03-03T01:14:57;37.63;33.31;45.41;;
67304;Laerm;57660;51.436;5.978;2023-03-03T01:15:08;33.36;31.25;37.54;;
67304;Laerm;57660;51.436;5.978;2023-03-03T01:15:19;31.65;30.46;32.76;;
67304;Laerm;57660;51.436;5.978;2023-03-03T01:15:32;31.12;29.91;32.36;;
67304;Laerm;57660;51.436;5.978;2023-03-03T01:16:00;30.60;29.36;33.82;;
67304;Laerm;57660;51.436;5.978;2023-03-03T01:16:20;30.45;29.26;31.78;;
67304;Laerm;57660;51.436;5.978;2023-03-03T01:16:33;30.28;29.25;31.34;;
67304;Laerm;57660;51.436;5.978;2023-03-03T01:16:52;30.22;29.32;31.14;;
67304;Laerm;57660;51.436;5.978;2023-03-03T01:17:03;30.37;29.39;31.91;;
67304;Laerm;57660;51.436;5.978;2023-03-03T01:17:19;30.46;29.24;33.63;;
67304;Laerm;57660;51.436;5.978;2023-03-03T01:17:29;30.43;29.05;35.40;;
67304;Laerm;57660;51.436;5.978;2023-03-03T01:17:40;30.42;29.36;31.47;;
67304;Laerm;57660;51.436;5.978;2023-03-03T01:17:52;30.66;29.29;35.18;;
67304;Laerm;57660;51.436;5.978;2023-03-03T01:18:03;33.25;29.26;45.39;;
67304;Laerm;57660;51.436;5.978;2023-03-03T01:18:13;30.33;29.22;31.51;;
67304;Laerm;57660;51.436;5.978;2023-03-03T01:18:24;30.23;29.02;32.68;;
67304;Laerm;57660;51.436;5.978;2023-03-03T01:18:37;30.28;29.19;31.21;;
67304;Laerm;57660;51.436;5.978;2023-03-03T01:19:15;30.13;29.06;31.34;;
67304;Laerm;57660;51.436;5.978;2023-03-03T01:19:28;30.16;29.09;31.02;;
67304;Laerm;57660;51.436;5.978;2023-03-03T01:19:56;30.24;29.25;33.23;;
67304;Laerm;57660;51.436;5.978;2023-03-03T01:20:08;30.09;29.17;32.45;;
67304;Laerm;57660;51.436;5.978;2023-03-03T01:20:37;30.03;28.81;31.32;;
67304;Laerm;57660;51.436;5.978;2023-03-03T01:20:50;30.10;29.07;31.22;;
67304;Laerm;57660;51.436;5.978;2023-03-03T01:21:00;30.21;29.25;31.15;;
67304;Laerm;57660;51.436;5.978;2023-03-03T01:21:17;30.27;29.23;31.30;;
67304;Laerm;57660;51.436;5.978;2023-03-03T01:21:30;41.93;29.33;49.58;;
67304;Laerm;57660;51.436;5.978;2023-03-03T01:21:49;45.88;38.50;51.20;;
67304;Laerm;57660;51.436;5.978;2023-03-03T01:22:08;41.91;36.86;45.21;;
67304;Laerm;57660;51.436;5.978;2023-03-03T01:22:19;70.55;40.83;77.63;;
67304;Laerm;57660;51.436;5.978;2023-03-03T01:22:38;73.21;68.71;77.26;;
67304;Laerm;57660;51.436;5.978;2023-03-03T01:22:48;62.53;37.51;75.00;;
67304;Laerm;57660;51.436;5.978;2023-03-03T01:23:08;35.22;31.37;39.55;;
67304;Laerm;57660;51.436;5.978;2023-03-03T01:23:19;31.62;30.11;33.50;;
67304;Laerm;57660;51.436;5.978;2023-03-03T01:23:38;31.47;30.41;32.75;;
67304;Laerm;57660;51.436;5.978;2023-03-03T01:23:49;31.10;29.96;33.01;;
67304;Laerm;57660;51.436;5.978;2023-03-03T01:23:59;30.78;29.78;31.75;;
67304;Laerm;57660;51.436;5.978;2023-03-03T01:24:36;30.65;29.28;32.56;;
67304;Laerm;57660;51.436;5.978;2023-03-03T01:24:49;31.81;29.41;40.99;;
67304;Laerm;57660;51.436;5.978;2023-03-03T01:24:59;30.34;29.36;31.83;;
67304;Laerm;57660;51.436;5.978;2023-03-03T01:25:21;30.28;29.03;31.47;;
67304;Laerm;57660;51.436;5.978;2023-03-03T01:25:39;32.08;29.38;43.91;;
67304;Laerm;57660;51.436;5.978;2023-03-03T01:25:49;30.79;29.53;33.18;;
67304;Laerm;57660;51.436;5.978;2023-03-03T01:26:06;30.25;29.04;31.57;;
67304;Laerm;57660;51.436;5.978;2023-03-03T01:26:19;30.29;29.05;33.96;;
67304;Laerm;57660;51.436;5.978;2023-03-03T01:26:39;30.42;29.37;31.71;;
67304;Laerm;57660;51.436;5.978;2023-03-03T01:26:51;30.41;29.01;31.53;;
67304;Laerm;57660;51.436;5.978;2023-03-03T01:27:24;30.37;28.88;31.94;;
67304;Laerm;57660;51.436;5.978;2023-03-03T01:27:40;30.34;29.27;31.39;;
67304;Laerm;57660;51.436;5.978;2023-03-03T01:27:53;30.26;29.28;32.13;;
67304;Laerm;57660;51.436;5.978;2023-03-03T01:28:06;30.33;29.39;31.75;;
67304;Laerm;57660;51.436;5.978;2023-03-03T01:28:17;30.47;29.57;31.89;;
67304;Laerm;57660;51.436;5.978;2023-03-03T01:28:56;30.33;29.02;32.56;;
67304;Laerm;57660;51.436;5.978;2023-03-03T01:29:07;30.28;29.13;33.84;;
67304;Laerm;57660;51.436;5.978;2023-03-03T01:29:17;30.31;29.10;32.53;;
67304;Laerm;57660;51.436;5.978;2023-03-03T01:29:55;30.31;29.32;31.27;;
67304;Laerm;57660;51.436;5.978;2023-03-03T01:30:05;30.07;28.64;31.42;;
67304;Laerm;57660;51.436;5.978;2023-03-03T01:30:32;30.60;28.87;42.81;;
67304;Laerm;57660;51.436;5.978;2023-03-03T01:30:52;30.93;29.55;36.42;;
67304;Laerm;57660;51.436;5.978;2023-03-03T01:31:03;30.38;29.22;31.93;;
67304;Laerm;57660;51.436;5.978;2023-03-03T01:31:16;30.28;29.09;33.19;;
67304;Laerm;57660;51.436;5.978;2023-03-03T01:31:27;30.15;29.36;31.03;;
67304;Laerm;57660;51.436;5.978;2023-03-03T01:31:37;30.23;28.97;31.15;;
67304;Laerm;57660;51.436;5.978;2023-03-03T01:31:47;30.30;29.07;32.71;;
67304;Laerm;57660;51.436;5.978;2023-03-03T01:32:05;30.20;29.05;31.23;;
67304;Laerm;57660;51.436;5.978;2023-03-03T01:32:18;30.49;29.22;34.37;;
67304;Laerm;57660;51.436;5.978;2023-03-03T01:32:33;30.26;28.97;31.49;;
67304;Laerm;57660;51.436;5.978;2023-03-03T01:32:43;30.18;28.91;31.71;;
67304;Laerm;57660;51.436;5.978;2023-03-03T01:32:56;30.47;29.29;32.92;;
67304;Laerm;57660;51.436;5.978;2023-03-03T01:33:09;30.11;29.10;31.64;;
67304;Laerm;57660;51.436;5.978;2023-03-03T01:33:25;30.26;29.31;35.91;;
67304;Laerm;57660;51.436;5.978;2023-03-03T01:33:38;30.17;29.18;31.70;;
67304;Laerm;57660;51.436;5.978;2023-03-03T01:33:53;30.16;29.08;31.07;;
67304;Laerm;57660;51.436;5.978;2023-03-03T01:34:04;30.11;28.90;31.01;;
67304;Laerm;57660;51.436;5.978;2023-03-03T01:34:24;30.28;29.18;31.17;;
67304;Laerm;57660;51.436;5.978;2023-03-03T01:34:37;30.31;29.25;33.88;;
67304;Laerm;57660;51.436;5.978;2023-03-03T01:34:54;30.26;29.00;31.28;;
67304;Laerm;57660;51.436;5.978;2023-03-03T01:35:08;30.19;29.07;31.36;;
67304;Laerm;57660;51.436;5.978;2023-03-03T01:35:27;30.19;28.90;31.32;;
67304;Laerm;57660;51.436;5.978;2023-03-03T01:35:48;30.24;29.34;31.30;;
67304;Laerm;57660;51.436;5.978;2023-03-03T01:36:01;30.26;29.34;31.35;;
67304;Laerm;57660;51.436;5.978;2023-03-03T01:36:16;30.11;28.92;30.85;;
67304;Laerm;57660;51.436;5.978;2023-03-03T01:36:31;30.03;29.09;30.88;;
67304;Laerm;57660;51.436;5.978;2023-03-03T01:36:58;30.23;29.19;31.50;;
67304;Laerm;57660;51.436;5.978;2023-03-03T01:37:14;30.23;29.13;31.00;;
67304;Laerm;57660;51.436;5.978;2023-03-03T01:37:24;30.23;29.17;31.26;;
67304;Laerm;57660;51.436;5.978;2023-03-03T01:37:37;30.11;29.20;31.10;;
67304;Laerm;57660;51.436;5.978;2023-03-03T01:37:48;30.21;29.04;31.40;;
67304;Laerm;57660;51.436;5.978;2023-03-03T01:38:19;30.28;29.34;31.24;;
67304;Laerm;57660;51.436;5.978;2023-03-03T01:38:37;30.25;28.92;31.39;;
67304;Laerm;57660;51.436;5.978;2023-03-03T01:38:57;30.27;29.30;31.39;;
67304;Laerm;57660;51.436;5.978;2023-03-03T01:39:10;30.25;29.12;35.92;;
67304;Laerm;57660;51.436;5.978;2023-03-03T01:39:30;30.13;29.33;31.72;;
67304;Laerm;57660;51.436;5.978;2023-03-03T01:39:46;30.17;29.04;31.28;;